sensor_id;sensor_type;location;lat;lon;timestamp;P1;durP1;ratioP1;P2;durP2;ratioP2
3781;SDS011;6881;49.962;7.718;2023-04-03T00:01:47;2.57;;;1.63;;
3781;SDS011;6881;49.962;7.718;2023-04-03T00:04:12;2.47;;;2.33;;
3781;SDS011;6881;49.962;7.718;2023-04-03T00:06:38;1.97;;;1.57;;
3781;SDS011;6881;49.962;7.718;2023-04-03T00:09:03;2.33;;;1.90;;
3781;SDS011;6881;49.962;7.718;2023-04-03T00:11:28;2.70;;;1.60;;
3781;SDS011;6881;49.962;7.718;2023-04-03T00:13:53;5.10;;;2.90;;
3781;SDS011;6881;49.962;7.718;2023-04-03T00:16:19;3.30;;;3.00;;
3781;SDS011;6881;49.962;7.718;2023-04-03T00:18:44;2.80;;;2.60;;
3781;SDS011;6881;49.962;7.718;2023-04-03T00:21:10;5.17;;;3.57;;
3781;SDS011;6881;49.962;7.718;2023-04-03T00:23:37;3.37;;;3.03;;
3781;SDS011;6881;49.962;7.718;2023-04-03T00:26:02;4.80;;;2.73;;
3781;SDS011;6881;49.962;7.718;2023-04-03T00:28:28;3.57;;;2.90;;
3781;SDS011;6881;49.962;7.718;2023-04-03T00:30:53;3.10;;;2.77;;
3781;SDS011;6881;49.962;7.718;2023-04-03T00:33:18;3.63;;;2.90;;
3781;SDS011;6881;49.962;7.718;2023-04-03T00:35:46;3.33;;;2.80;;
3781;SDS011;6881;49.962;7.718;2023-04-03T00:38:13;2.90;;;2.40;;
3781;SDS011;6881;49.962;7.718;2023-04-03T00:40:41;5.20;;;3.10;;
3781;SDS011;6881;49.962;7.718;2023-04-03T00:43:11;4.27;;;3.07;;
3781;SDS011;6881;49.962;7.718;2023-04-03T00:45:40;3.83;;;2.90;;
3781;SDS011;6881;49.962;7.718;2023-04-03T00:48:08;3.60;;;2.93;;
3781;SDS011;6881;49.962;7.718;2023-04-03T00:50:37;2.23;;;2.00;;
3781;SDS011;6881;49.962;7.718;2023-04-03T00:53:04;3.73;;;2.70;;
3781;SDS011;6881;49.962;7.718;2023-04-03T00:55:31;3.10;;;2.67;;
3781;SDS011;6881;49.962;7.718;2023-04-03T00:57:57;2.97;;;2.70;;
3781;SDS011;6881;49.962;7.718;2023-04-03T01:00:23;3.60;;;2.50;;
3781;SDS011;6881;49.962;7.718;2023-04-03T01:02:49;3.33;;;2.30;;
3781;SDS011;6881;49.962;7.718;2023-04-03T01:05:15;3.10;;;2.10;;
3781;SDS011;6881;49.962;7.718;2023-04-03T01:07:41;2.90;;;2.43;;
3781;SDS011;6881;49.962;7.718;2023-04-03T01:10:08;3.10;;;2.27;;
3781;SDS011;6881;49.962;7.718;2023-04-03T01:12:35;4.33;;;2.80;;
3781;SDS011;6881;49.962;7.718;2023-04-03T01:15:06;4.00;;;3.10;;
3781;SDS011;6881;49.962;7.718;2023-04-03T01:17:35;6.00;;;3.50;;
3781;SDS011;6881;49.962;7.718;2023-04-03T01:25:37;4.00;;;2.80;;
3781;SDS011;6881;49.962;7.718;2023-04-03T01:28:03;3.30;;;2.77;;
3781;SDS011;6881;49.962;7.718;2023-04-03T01:31:12;3.53;;;2.63;;
3781;SDS011;6881;49.962;7.718;2023-04-03T01:33:21;4.80;;;3.03;;
3781;SDS011;6881;49.962;7.718;2023-04-03T01:35:47;7.37;;;3.83;;
3781;SDS011;6881;49.962;7.718;2023-04-03T01:38:12;5.80;;;3.70;;
3781;SDS011;6881;49.962;7.718;2023-04-03T01:40:37;7.90;;;4.17;;
3781;SDS011;6881;49.962;7.718;2023-04-03T01:43:03;5.77;;;3.97;;
3781;SDS011;6881;49.962;7.718;2023-04-03T01:45:28;3.83;;;2.20;;
3781;SDS011;6881;49.962;7.718;2023-04-03T01:47:53;5.37;;;2.37;;
3781;SDS011;6881;49.962;7.718;2023-04-03T01:50:19;3.30;;;2.50;;
3781;SDS011;6881;49.962;7.718;2023-04-03T01:52:44;6.90;;;2.30;;
3781;SDS011;6881;49.962;7.718;2023-04-03T01:55:10;3.33;;;1.77;;
3781;SDS011;6881;49.962;7.718;2023-04-03T01:57:35;2.00;;;1.40;;
3781;SDS011;6881;49.962;7.718;2023-04-03T02:00:00;1.83;;;1.13;;
3781;SDS011;6881;49.962;7.718;2023-04-03T02:02:26;3.73;;;1.80;;
3781;SDS011;6881;49.962;7.718;2023-04-03T02:04:51;2.10;;;1.80;;
3781;SDS011;6881;49.962;7.718;2023-04-03T02:07:17;1.50;;;1.40;;
3781;SDS011;6881;49.962;7.718;2023-04-03T02:09:42;1.60;;;1.50;;
3781;SDS011;6881;49.962;7.718;2023-04-03T02:12:07;1.67;;;1.20;;
3781;SDS011;6881;49.962;7.718;2023-04-03T02:14:33;2.30;;;1.53;;
3781;SDS011;6881;49.962;7.718;2023-04-03T02:16:59;3.10;;;1.90;;
3781;SDS011;6881;49.962;7.718;2023-04-03T02:19:25;4.03;;;1.80;;
3781;SDS011;6881;49.962;7.718;2023-04-03T02:21:51;3.50;;;1.73;;
3781;SDS011;6881;49.962;7.718;2023-04-03T02:24:16;2.60;;;1.10;;
3781;SDS011;6881;49.962;7.718;2023-04-03T02:26:41;4.73;;;1.73;;
3781;SDS011;6881;49.962;7.718;2023-04-03T02:29:07;4.77;;;1.80;;
3781;SDS011;6881;49.962;7.718;2023-04-03T02:31:32;3.77;;;1.97;;
3781;SDS011;6881;49.962;7.718;2023-04-03T02:33:57;2.00;;;1.80;;
3781;SDS011;6881;49.962;7.718;2023-04-03T02:36:23;4.30;;;1.77;;
3781;SDS011;6881;49.962;7.718;2023-04-03T02:38:48;1.90;;;1.23;;
3781;SDS011;6881;49.962;7.718;2023-04-03T02:41:13;2.00;;;1.70;;
3781;SDS011;6881;49.962;7.718;2023-04-03T02:43:39;3.07;;;1.27;;
3781;SDS011;6881;49.962;7.718;2023-04-03T02:46:05;2.40;;;1.53;;
3781;SDS011;6881;49.962;7.718;2023-04-03T02:48:30;4.13;;;1.40;;
3781;SDS011;6881;49.962;7.718;2023-04-03T02:50:56;1.83;;;1.43;;
3781;SDS011;6881;49.962;7.718;2023-04-03T02:53:22;3.90;;;1.33;;
3781;SDS011;6881;49.962;7.718;2023-04-03T02:55:48;3.63;;;1.67;;
3781;SDS011;6881;49.962;7.718;2023-04-03T02:58:13;1.57;;;1.13;;
3781;SDS011;6881;49.962;7.718;2023-04-03T03:00:39;2.67;;;1.70;;
3781;SDS011;6881;49.962;7.718;2023-04-03T03:03:04;1.53;;;1.27;;
3781;SDS011;6881;49.962;7.718;2023-04-03T03:05:30;1.47;;;1.10;;
3781;SDS011;6881;49.962;7.718;2023-04-03T03:07:55;2.40;;;1.63;;
3781;SDS011;6881;49.962;7.718;2023-04-03T03:10:21;3.93;;;1.20;;
3781;SDS011;6881;49.962;7.718;2023-04-03T03:12:47;1.67;;;1.50;;
3781;SDS011;6881;49.962;7.718;2023-04-03T03:15:12;2.53;;;2.10;;
3781;SDS011;6881;49.962;7.718;2023-04-03T03:17:38;1.70;;;1.60;;
3781;SDS011;6881;49.962;7.718;2023-04-03T03:20:04;2.10;;;1.20;;
3781;SDS011;6881;49.962;7.718;2023-04-03T03:22:30;2.13;;;1.47;;
3781;SDS011;6881;49.962;7.718;2023-04-03T03:24:56;3.03;;;2.20;;
3781;SDS011;6881;49.962;7.718;2023-04-03T03:27:21;7.23;;;1.13;;
3781;SDS011;6881;49.962;7.718;2023-04-03T03:29:46;2.60;;;1.67;;
3781;SDS011;6881;49.962;7.718;2023-04-03T03:32:12;1.63;;;1.23;;
3781;SDS011;6881;49.962;7.718;2023-04-03T03:34:37;1.57;;;1.13;;
3781;SDS011;6881;49.962;7.718;2023-04-03T03:37:03;5.13;;;1.47;;
3781;SDS011;6881;49.962;7.718;2023-04-03T03:39:28;2.00;;;1.67;;
3781;SDS011;6881;49.962;7.718;2023-04-03T03:41:53;2.20;;;1.57;;
3781;SDS011;6881;49.962;7.718;2023-04-03T03:44:19;1.80;;;1.03;;
3781;SDS011;6881;49.962;7.718;2023-04-03T03:46:45;1.37;;;1.27;;
3781;SDS011;6881;49.962;7.718;2023-04-03T03:49:11;3.80;;;2.10;;
3781;SDS011;6881;49.962;7.718;2023-04-03T03:51:36;1.70;;;1.60;;
3781;SDS011;6881;49.962;7.718;2023-04-03T03:54:02;4.53;;;1.90;;
3781;SDS011;6881;49.962;7.718;2023-04-03T03:56:28;1.70;;;1.43;;
3781;SDS011;6881;49.962;7.718;2023-04-03T03:58:54;2.57;;;1.70;;
3781;SDS011;6881;49.962;7.718;2023-04-03T04:01:21;3.80;;;2.00;;
3781;SDS011;6881;49.962;7.718;2023-04-03T04:03:47;2.40;;;1.93;;
3781;SDS011;6881;49.962;7.718;2023-04-03T04:06:12;2.27;;;1.70;;
3781;SDS011;6881;49.962;7.718;2023-04-03T04:08:38;4.20;;;1.70;;
3781;SDS011;6881;49.962;7.718;2023-04-03T04:11:03;1.77;;;1.60;;
3781;SDS011;6881;49.962;7.718;2023-04-03T04:13:28;4.33;;;2.93;;
3781;SDS011;6881;49.962;7.718;2023-04-03T04:15:54;2.40;;;2.10;;
3781;SDS011;6881;49.962;7.718;2023-04-03T04:18:19;5.87;;;2.93;;
3781;SDS011;6881;49.962;7.718;2023-04-03T04:20:46;6.20;;;3.73;;
3781;SDS011;6881;49.962;7.718;2023-04-03T04:23:11;6.87;;;3.20;;
3781;SDS011;6881;49.962;7.718;2023-04-03T04:25:36;7.40;;;3.73;;
3781;SDS011;6881;49.962;7.718;2023-04-03T04:28:02;7.07;;;4.60;;
3781;SDS011;6881;49.962;7.718;2023-04-03T04:30:27;8.10;;;3.67;;
3781;SDS011;6881;49.962;7.718;2023-04-03T04:32:53;4.60;;;3.50;;
3781;SDS011;6881;49.962;7.718;2023-04-03T04:35:18;10.20;;;4.70;;
3781;SDS011;6881;49.962;7.718;2023-04-03T04:37:43;5.50;;;3.63;;
3781;SDS011;6881;49.962;7.718;2023-04-03T04:40:09;8.63;;;3.17;;
3781;SDS011;6881;49.962;7.718;2023-04-03T04:42:35;6.50;;;3.00;;
3781;SDS011;6881;49.962;7.718;2023-04-03T04:45:00;2.00;;;1.67;;
3781;SDS011;6881;49.962;7.718;2023-04-03T04:47:25;2.73;;;2.27;;
3781;SDS011;6881;49.962;7.718;2023-04-03T04:49:53;3.17;;;1.67;;
3781;SDS011;6881;49.962;7.718;2023-04-03T04:52:18;5.60;;;2.73;;
3781;SDS011;6881;49.962;7.718;2023-04-03T04:54:45;2.30;;;2.03;;
3781;SDS011;6881;49.962;7.718;2023-04-03T04:57:10;2.47;;;2.23;;
3781;SDS011;6881;49.962;7.718;2023-04-03T04:59:35;3.40;;;2.33;;
3781;SDS011;6881;49.962;7.718;2023-04-03T05:02:01;2.03;;;1.87;;
3781;SDS011;6881;49.962;7.718;2023-04-03T05:04:26;2.80;;;2.00;;
3781;SDS011;6881;49.962;7.718;2023-04-03T05:06:52;5.53;;;2.20;;
3781;SDS011;6881;49.962;7.718;2023-04-03T05:09:17;6.77;;;2.23;;
3781;SDS011;6881;49.962;7.718;2023-04-03T05:11:43;3.50;;;1.83;;
3781;SDS011;6881;49.962;7.718;2023-04-03T05:14:08;6.17;;;2.00;;
3781;SDS011;6881;49.962;7.718;2023-04-03T05:16:33;2.40;;;1.60;;
3781;SDS011;6881;49.962;7.718;2023-04-03T05:18:59;4.10;;;2.23;;
3781;SDS011;6881;49.962;7.718;2023-04-03T05:21:24;2.43;;;2.07;;
3781;SDS011;6881;49.962;7.718;2023-04-03T05:23:51;4.50;;;2.00;;
3781;SDS011;6881;49.962;7.718;2023-04-03T05:26:16;5.50;;;2.70;;
3781;SDS011;6881;49.962;7.718;2023-04-03T05:28:42;3.60;;;1.80;;
3781;SDS011;6881;49.962;7.718;2023-04-03T05:31:07;1.90;;;1.70;;
3781;SDS011;6881;49.962;7.718;2023-04-03T05:33:33;3.20;;;1.60;;
3781;SDS011;6881;49.962;7.718;2023-04-03T05:36:01;3.33;;;1.63;;
3781;SDS011;6881;49.962;7.718;2023-04-03T05:38:30;1.87;;;1.30;;
3781;SDS011;6881;49.962;7.718;2023-04-03T05:40:55;3.63;;;1.27;;
3781;SDS011;6881;49.962;7.718;2023-04-03T05:43:21;2.53;;;1.33;;
3781;SDS011;6881;49.962;7.718;2023-04-03T05:45:47;2.47;;;1.50;;
3781;SDS011;6881;49.962;7.718;2023-04-03T05:48:12;7.13;;;1.50;;
3781;SDS011;6881;49.962;7.718;2023-04-03T05:50:38;3.50;;;1.77;;
3781;SDS011;6881;49.962;7.718;2023-04-03T05:53:06;2.33;;;1.50;;
3781;SDS011;6881;49.962;7.718;2023-04-03T05:55:32;3.43;;;1.43;;
3781;SDS011;6881;49.962;7.718;2023-04-03T05:57:57;7.17;;;2.13;;
3781;SDS011;6881;49.962;7.718;2023-04-03T06:00:23;4.13;;;1.63;;
3781;SDS011;6881;49.962;7.718;2023-04-03T06:02:48;4.00;;;2.30;;
3781;SDS011;6881;49.962;7.718;2023-04-03T06:05:13;2.47;;;2.03;;
3781;SDS011;6881;49.962;7.718;2023-04-03T06:07:39;3.27;;;1.63;;
3781;SDS011;6881;49.962;7.718;2023-04-03T06:10:05;4.33;;;1.47;;
3781;SDS011;6881;49.962;7.718;2023-04-03T06:12:31;3.47;;;1.57;;
3781;SDS011;6881;49.962;7.718;2023-04-03T06:14:57;1.67;;;1.33;;
3781;SDS011;6881;49.962;7.718;2023-04-03T06:17:23;3.93;;;2.50;;
3781;SDS011;6881;49.962;7.718;2023-04-03T06:19:48;6.87;;;1.53;;
3781;SDS011;6881;49.962;7.718;2023-04-03T06:22:14;4.87;;;1.23;;
3781;SDS011;6881;49.962;7.718;2023-04-03T06:24:39;2.67;;;2.13;;
3781;SDS011;6881;49.962;7.718;2023-04-03T06:27:05;2.90;;;2.30;;
3781;SDS011;6881;49.962;7.718;2023-04-03T06:29:30;2.27;;;1.70;;
3781;SDS011;6881;49.962;7.718;2023-04-03T06:31:56;8.60;;;1.97;;
3781;SDS011;6881;49.962;7.718;2023-04-03T06:34:22;1.73;;;1.50;;
3781;SDS011;6881;49.962;7.718;2023-04-03T06:36:47;5.00;;;2.23;;
3781;SDS011;6881;49.962;7.718;2023-04-03T06:39:17;3.70;;;2.30;;
3781;SDS011;6881;49.962;7.718;2023-04-03T06:41:48;3.20;;;1.73;;
3781;SDS011;6881;49.962;7.718;2023-04-03T06:44:13;3.83;;;1.70;;
3781;SDS011;6881;49.962;7.718;2023-04-03T06:46:41;2.70;;;1.63;;
3781;SDS011;6881;49.962;7.718;2023-04-03T06:49:07;2.20;;;1.53;;
3781;SDS011;6881;49.962;7.718;2023-04-03T06:51:33;3.53;;;1.60;;
3781;SDS011;6881;49.962;7.718;2023-04-03T06:54:00;2.07;;;1.87;;
3781;SDS011;6881;49.962;7.718;2023-04-03T06:56:26;2.63;;;1.50;;
3781;SDS011;6881;49.962;7.718;2023-04-03T06:58:52;2.13;;;1.77;;
3781;SDS011;6881;49.962;7.718;2023-04-03T07:01:23;5.30;;;1.47;;
3781;SDS011;6881;49.962;7.718;2023-04-03T07:03:51;5.37;;;1.43;;
3781;SDS011;6881;49.962;7.718;2023-04-03T07:06:17;3.00;;;1.70;;
3781;SDS011;6881;49.962;7.718;2023-04-03T07:08:43;3.47;;;1.50;;
3781;SDS011;6881;49.962;7.718;2023-04-03T07:11:09;3.23;;;1.87;;
3781;SDS011;6881;49.962;7.718;2023-04-03T07:13:35;4.23;;;2.30;;
3781;SDS011;6881;49.962;7.718;2023-04-03T07:16:01;1.40;;;1.30;;
3781;SDS011;6881;49.962;7.718;2023-04-03T07:18:27;2.90;;;1.73;;
3781;SDS011;6881;49.962;7.718;2023-04-03T07:20:52;2.60;;;1.33;;
3781;SDS011;6881;49.962;7.718;2023-04-03T07:23:17;2.00;;;1.40;;
3781;SDS011;6881;49.962;7.718;2023-04-03T07:25:44;3.13;;;1.00;;
3781;SDS011;6881;49.962;7.718;2023-04-03T07:28:13;1.87;;;1.13;;
3781;SDS011;6881;49.962;7.718;2023-04-03T07:30:45;4.47;;;1.57;;
3781;SDS011;6881;49.962;7.718;2023-04-03T07:33:33;1.37;;;1.23;;
3781;SDS011;6881;49.962;7.718;2023-04-03T07:35:59;3.73;;;1.43;;
3781;SDS011;6881;49.962;7.718;2023-04-03T07:38:25;4.33;;;2.03;;
3781;SDS011;6881;49.962;7.718;2023-04-03T07:40:51;4.00;;;1.53;;
3781;SDS011;6881;49.962;7.718;2023-04-03T07:43:17;3.57;;;1.60;;
3781;SDS011;6881;49.962;7.718;2023-04-03T07:45:43;2.73;;;1.37;;
3781;SDS011;6881;49.962;7.718;2023-04-03T07:48:09;2.00;;;1.37;;
3781;SDS011;6881;49.962;7.718;2023-04-03T07:50:36;4.67;;;1.30;;
3781;SDS011;6881;49.962;7.718;2023-04-03T07:53:01;1.90;;;1.23;;
3781;SDS011;6881;49.962;7.718;2023-04-03T07:55:27;1.60;;;1.30;;
3781;SDS011;6881;49.962;7.718;2023-04-03T07:57:53;2.10;;;1.53;;
3781;SDS011;6881;49.962;7.718;2023-04-03T08:00:18;2.27;;;2.00;;
3781;SDS011;6881;49.962;7.718;2023-04-03T08:02:44;4.67;;;1.77;;
3781;SDS011;6881;49.962;7.718;2023-04-03T08:05:15;1.77;;;0.90;;
3781;SDS011;6881;49.962;7.718;2023-04-03T08:07:40;2.40;;;1.20;;
3781;SDS011;6881;49.962;7.718;2023-04-03T08:10:06;2.93;;;1.80;;
3781;SDS011;6881;49.962;7.718;2023-04-03T08:12:31;3.80;;;1.37;;
3781;SDS011;6881;49.962;7.718;2023-04-03T08:14:57;1.20;;;1.03;;
3781;SDS011;6881;49.962;7.718;2023-04-03T08:17:25;4.37;;;1.50;;
3781;SDS011;6881;49.962;7.718;2023-04-03T08:19:50;1.60;;;1.20;;
3781;SDS011;6881;49.962;7.718;2023-04-03T08:22:15;2.30;;;1.90;;
3781;SDS011;6881;49.962;7.718;2023-04-03T08:24:41;3.07;;;1.50;;
3781;SDS011;6881;49.962;7.718;2023-04-03T08:27:06;3.80;;;1.43;;
3781;SDS011;6881;49.962;7.718;2023-04-03T08:29:31;1.00;;;0.90;;
3781;SDS011;6881;49.962;7.718;2023-04-03T08:31:57;2.00;;;1.30;;
3781;SDS011;6881;49.962;7.718;2023-04-03T08:34:22;3.00;;;1.37;;
3781;SDS011;6881;49.962;7.718;2023-04-03T08:36:48;1.73;;;1.63;;
3781;SDS011;6881;49.962;7.718;2023-04-03T08:39:14;2.33;;;1.70;;
3781;SDS011;6881;49.962;7.718;2023-04-03T08:41:40;2.83;;;1.60;;
3781;SDS011;6881;49.962;7.718;2023-04-03T08:49:46;3.63;;;1.50;;
3781;SDS011;6881;49.962;7.718;2023-04-03T08:52:31;3.03;;;1.47;;
3781;SDS011;6881;49.962;7.718;2023-04-03T08:54:59;3.00;;;1.20;;
3781;SDS011;6881;49.962;7.718;2023-04-03T08:59:53;2.23;;;1.30;;
3781;SDS011;6881;49.962;7.718;2023-04-03T09:02:33;3.80;;;1.83;;
3781;SDS011;6881;49.962;7.718;2023-04-03T09:05:01;4.10;;;2.10;;
3781;SDS011;6881;49.962;7.718;2023-04-03T09:07:32;2.47;;;1.43;;
3781;SDS011;6881;49.962;7.718;2023-04-03T09:10:02;1.43;;;1.13;;
3781;SDS011;6881;49.962;7.718;2023-04-03T09:12:31;1.63;;;1.10;;
3781;SDS011;6881;49.962;7.718;2023-04-03T09:15:23;4.20;;;1.27;;
3781;SDS011;6881;49.962;7.718;2023-04-03T09:22:56;4.97;;;1.87;;
3781;SDS011;6881;49.962;7.718;2023-04-03T09:25:27;4.37;;;1.83;;
3781;SDS011;6881;49.962;7.718;2023-04-03T09:27:54;4.63;;;1.97;;
3781;SDS011;6881;49.962;7.718;2023-04-03T09:30:22;3.10;;;1.60;;
3781;SDS011;6881;49.962;7.718;2023-04-03T09:32:50;1.83;;;1.43;;
3781;SDS011;6881;49.962;7.718;2023-04-03T09:35:19;2.77;;;0.97;;
3781;SDS011;6881;49.962;7.718;2023-04-03T09:37:49;2.60;;;1.17;;
3781;SDS011;6881;49.962;7.718;2023-04-03T09:42:52;2.10;;;1.70;;
3781;SDS011;6881;49.962;7.718;2023-04-03T09:45:39;3.13;;;1.53;;
3781;SDS011;6881;49.962;7.718;2023-04-03T09:48:08;1.37;;;1.07;;
3781;SDS011;6881;49.962;7.718;2023-04-03T09:56:02;3.33;;;1.93;;
3781;SDS011;6881;49.962;7.718;2023-04-03T09:58:40;4.80;;;1.73;;
3781;SDS011;6881;49.962;7.718;2023-04-03T10:01:20;3.60;;;1.77;;
3781;SDS011;6881;49.962;7.718;2023-04-03T10:04:02;4.53;;;2.00;;
3781;SDS011;6881;49.962;7.718;2023-04-03T10:06:34;2.10;;;1.57;;
3781;SDS011;6881;49.962;7.718;2023-04-03T10:09:20;4.20;;;1.80;;
3781;SDS011;6881;49.962;7.718;2023-04-03T10:19:53;2.30;;;1.47;;
3781;SDS011;6881;49.962;7.718;2023-04-03T10:30:19;3.93;;;1.90;;
3781;SDS011;6881;49.962;7.718;2023-04-03T10:32:58;3.97;;;1.97;;
3781;SDS011;6881;49.962;7.718;2023-04-03T10:41:21;4.50;;;1.53;;
3781;SDS011;6881;49.962;7.718;2023-04-03T10:46:23;2.80;;;1.47;;
3781;SDS011;6881;49.962;7.718;2023-04-03T10:51:29;2.03;;;1.13;;
3781;SDS011;6881;49.962;7.718;2023-04-03T10:57:04;2.17;;;1.13;;
3781;SDS011;6881;49.962;7.718;2023-04-03T11:02:11;2.73;;;1.70;;
3781;SDS011;6881;49.962;7.718;2023-04-03T11:04:50;4.00;;;1.93;;
3781;SDS011;6881;49.962;7.718;2023-04-03T11:07:19;7.03;;;1.83;;
3781;SDS011;6881;49.962;7.718;2023-04-03T11:09:48;2.27;;;1.33;;
3781;SDS011;6881;49.962;7.718;2023-04-03T11:12:17;2.93;;;1.83;;
3781;SDS011;6881;49.962;7.718;2023-04-03T11:14:46;3.40;;;1.63;;
3781;SDS011;6881;49.962;7.718;2023-04-03T11:19:46;1.67;;;1.33;;
3781;SDS011;6881;49.962;7.718;2023-04-03T11:22:29;2.20;;;2.00;;
3781;SDS011;6881;49.962;7.718;2023-04-03T11:27:45;3.93;;;1.97;;
3781;SDS011;6881;49.962;7.718;2023-04-03T11:30:17;3.67;;;1.83;;
3781;SDS011;6881;49.962;7.718;2023-04-03T11:33:03;2.27;;;1.60;;
3781;SDS011;6881;49.962;7.718;2023-04-03T11:35:30;2.47;;;1.73;;
3781;SDS011;6881;49.962;7.718;2023-04-03T11:37:56;2.70;;;2.00;;
3781;SDS011;6881;49.962;7.718;2023-04-03T11:42:55;2.00;;;1.40;;
3781;SDS011;6881;49.962;7.718;2023-04-03T11:45:36;2.33;;;1.83;;
3781;SDS011;6881;49.962;7.718;2023-04-03T11:50:45;4.50;;;2.40;;
3781;SDS011;6881;49.962;7.718;2023-04-03T12:00:48;4.37;;;2.10;;
3781;SDS011;6881;49.962;7.718;2023-04-03T12:05:55;2.13;;;1.70;;
3781;SDS011;6881;49.962;7.718;2023-04-03T12:16:22;3.33;;;2.53;;
3781;SDS011;6881;49.962;7.718;2023-04-03T12:19:34;2.70;;;2.20;;
3781;SDS011;6881;49.962;7.718;2023-04-03T12:22:12;2.30;;;2.10;;
3781;SDS011;6881;49.962;7.718;2023-04-03T12:24:41;3.83;;;2.17;;
3781;SDS011;6881;49.962;7.718;2023-04-03T12:27:24;4.00;;;2.20;;
3781;SDS011;6881;49.962;7.718;2023-04-03T12:38:14;3.37;;;2.20;;
3781;SDS011;6881;49.962;7.718;2023-04-03T12:46:26;4.40;;;2.20;;
3781;SDS011;6881;49.962;7.718;2023-04-03T12:48:58;4.17;;;3.30;;
3781;SDS011;6881;49.962;7.718;2023-04-03T12:51:40;4.20;;;1.97;;
3781;SDS011;6881;49.962;7.718;2023-04-03T12:54:13;4.93;;;1.90;;
3781;SDS011;6881;49.962;7.718;2023-04-03T12:56:40;3.23;;;2.10;;
3781;SDS011;6881;49.962;7.718;2023-04-03T12:59:13;2.23;;;2.00;;
3781;SDS011;6881;49.962;7.718;2023-04-03T13:01:41;3.83;;;2.67;;
3781;SDS011;6881;49.962;7.718;2023-04-03T13:04:06;2.70;;;2.00;;
3781;SDS011;6881;49.962;7.718;2023-04-03T13:06:35;1.90;;;1.80;;
3781;SDS011;6881;49.962;7.718;2023-04-03T13:09:03;3.97;;;1.60;;
3781;SDS011;6881;49.962;7.718;2023-04-03T13:11:35;2.13;;;1.93;;
3781;SDS011;6881;49.962;7.718;2023-04-03T13:14:04;2.03;;;1.73;;
3781;SDS011;6881;49.962;7.718;2023-04-03T13:16:31;3.30;;;1.93;;
3781;SDS011;6881;49.962;7.718;2023-04-03T13:18:57;1.90;;;1.60;;
3781;SDS011;6881;49.962;7.718;2023-04-03T13:21:26;4.70;;;2.13;;
3781;SDS011;6881;49.962;7.718;2023-04-03T13:23:54;4.80;;;2.13;;
3781;SDS011;6881;49.962;7.718;2023-04-03T13:26:27;2.50;;;2.13;;
3781;SDS011;6881;49.962;7.718;2023-04-03T13:28:55;3.37;;;1.80;;
3781;SDS011;6881;49.962;7.718;2023-04-03T13:31:25;2.77;;;1.97;;
3781;SDS011;6881;49.962;7.718;2023-04-03T13:34:02;2.10;;;1.87;;
3781;SDS011;6881;49.962;7.718;2023-04-03T13:36:33;2.30;;;2.00;;
3781;SDS011;6881;49.962;7.718;2023-04-03T13:39:27;2.50;;;2.20;;
3781;SDS011;6881;49.962;7.718;2023-04-03T13:42:22;5.80;;;2.27;;
3781;SDS011;6881;49.962;7.718;2023-04-03T13:47:39;3.40;;;2.00;;
3781;SDS011;6881;49.962;7.718;2023-04-03T13:58:00;2.90;;;2.30;;
3781;SDS011;6881;49.962;7.718;2023-04-03T14:01:10;1.90;;;1.47;;
3781;SDS011;6881;49.962;7.718;2023-04-03T14:05:46;3.93;;;2.50;;
3781;SDS011;6881;49.962;7.718;2023-04-03T14:08:12;3.03;;;1.90;;
3781;SDS011;6881;49.962;7.718;2023-04-03T14:10:37;5.90;;;2.43;;
3781;SDS011;6881;49.962;7.718;2023-04-03T14:13:02;3.13;;;1.93;;
3781;SDS011;6881;49.962;7.718;2023-04-03T14:15:28;3.87;;;2.03;;
3781;SDS011;6881;49.962;7.718;2023-04-03T14:17:56;3.30;;;2.10;;
3781;SDS011;6881;49.962;7.718;2023-04-03T14:20:23;2.63;;;2.43;;
3781;SDS011;6881;49.962;7.718;2023-04-03T14:22:50;2.90;;;1.90;;
3781;SDS011;6881;49.962;7.718;2023-04-03T14:25:16;3.60;;;2.40;;
3781;SDS011;6881;49.962;7.718;2023-04-03T14:27:43;2.67;;;2.20;;
3781;SDS011;6881;49.962;7.718;2023-04-03T14:30:18;2.40;;;2.00;;
3781;SDS011;6881;49.962;7.718;2023-04-03T14:32:49;3.33;;;2.43;;
3781;SDS011;6881;49.962;7.718;2023-04-03T14:35:15;2.20;;;2.00;;
3781;SDS011;6881;49.962;7.718;2023-04-03T14:37:41;2.37;;;2.17;;
3781;SDS011;6881;49.962;7.718;2023-04-03T14:40:08;2.27;;;2.07;;
3781;SDS011;6881;49.962;7.718;2023-04-03T14:42:35;1.83;;;1.60;;
3781;SDS011;6881;49.962;7.718;2023-04-03T14:45:03;2.13;;;1.93;;
3781;SDS011;6881;49.962;7.718;2023-04-03T14:47:31;3.27;;;2.00;;
3781;SDS011;6881;49.962;7.718;2023-04-03T14:49:56;3.83;;;2.13;;
3781;SDS011;6881;49.962;7.718;2023-04-03T14:52:30;2.50;;;2.30;;
3781;SDS011;6881;49.962;7.718;2023-04-03T14:54:57;3.47;;;2.80;;
3781;SDS011;6881;49.962;7.718;2023-04-03T14:57:24;3.70;;;2.50;;
3781;SDS011;6881;49.962;7.718;2023-04-03T14:59:50;2.87;;;2.07;;
3781;SDS011;6881;49.962;7.718;2023-04-03T15:02:26;2.20;;;1.97;;
3781;SDS011;6881;49.962;7.718;2023-04-03T15:04:54;2.50;;;2.27;;
3781;SDS011;6881;49.962;7.718;2023-04-03T15:07:20;4.03;;;2.07;;
3781;SDS011;6881;49.962;7.718;2023-04-03T15:09:46;3.83;;;2.17;;
3781;SDS011;6881;49.962;7.718;2023-04-03T15:12:11;3.23;;;1.83;;
3781;SDS011;6881;49.962;7.718;2023-04-03T15:14:37;3.43;;;1.93;;
3781;SDS011;6881;49.962;7.718;2023-04-03T15:17:04;2.90;;;2.33;;
3781;SDS011;6881;49.962;7.718;2023-04-03T15:19:32;3.43;;;2.10;;
3781;SDS011;6881;49.962;7.718;2023-04-03T15:22:02;2.60;;;2.20;;
3781;SDS011;6881;49.962;7.718;2023-04-03T15:24:27;2.40;;;1.70;;
3781;SDS011;6881;49.962;7.718;2023-04-03T15:26:52;2.20;;;2.00;;
3781;SDS011;6881;49.962;7.718;2023-04-03T15:29:18;3.30;;;2.47;;
3781;SDS011;6881;49.962;7.718;2023-04-03T15:31:43;2.97;;;2.10;;
3781;SDS011;6881;49.962;7.718;2023-04-03T15:34:08;3.00;;;1.90;;
3781;SDS011;6881;49.962;7.718;2023-04-03T15:36:34;4.43;;;2.20;;
3781;SDS011;6881;49.962;7.718;2023-04-03T15:38:59;2.00;;;1.57;;
3781;SDS011;6881;49.962;7.718;2023-04-03T15:41:24;4.00;;;2.20;;
3781;SDS011;6881;49.962;7.718;2023-04-03T15:43:50;3.20;;;1.90;;
3781;SDS011;6881;49.962;7.718;2023-04-03T15:46:15;2.20;;;2.00;;
3781;SDS011;6881;49.962;7.718;2023-04-03T15:48:41;4.13;;;1.70;;
3781;SDS011;6881;49.962;7.718;2023-04-03T15:51:06;2.20;;;1.97;;
3781;SDS011;6881;49.962;7.718;2023-04-03T15:53:31;2.43;;;1.80;;
3781;SDS011;6881;49.962;7.718;2023-04-03T15:55:57;2.93;;;2.40;;
3781;SDS011;6881;49.962;7.718;2023-04-03T15:58:22;3.37;;;2.47;;
3781;SDS011;6881;49.962;7.718;2023-04-03T16:00:47;5.23;;;2.40;;
3781;SDS011;6881;49.962;7.718;2023-04-03T16:03:17;4.90;;;2.47;;
3781;SDS011;6881;49.962;7.718;2023-04-03T16:05:44;4.07;;;3.03;;
3781;SDS011;6881;49.962;7.718;2023-04-03T16:08:09;3.77;;;2.87;;
3781;SDS011;6881;49.962;7.718;2023-04-03T16:10:35;2.60;;;1.77;;
3781;SDS011;6881;49.962;7.718;2023-04-03T16:13:01;2.13;;;1.80;;
3781;SDS011;6881;49.962;7.718;2023-04-03T16:15:27;2.83;;;2.10;;
3781;SDS011;6881;49.962;7.718;2023-04-03T16:17:53;2.70;;;2.50;;
3781;SDS011;6881;49.962;7.718;2023-04-03T16:20:18;3.33;;;2.27;;
3781;SDS011;6881;49.962;7.718;2023-04-03T16:22:45;4.47;;;3.03;;
3781;SDS011;6881;49.962;7.718;2023-04-03T16:25:11;3.63;;;2.17;;
3781;SDS011;6881;49.962;7.718;2023-04-03T16:27:36;2.87;;;2.37;;
3781;SDS011;6881;49.962;7.718;2023-04-03T16:30:03;2.83;;;1.60;;
3781;SDS011;6881;49.962;7.718;2023-04-03T16:32:29;3.17;;;2.00;;
3781;SDS011;6881;49.962;7.718;2023-04-03T16:34:56;4.83;;;1.97;;
3781;SDS011;6881;49.962;7.718;2023-04-03T16:37:21;3.33;;;1.70;;
3781;SDS011;6881;49.962;7.718;2023-04-03T16:39:47;2.30;;;1.60;;
3781;SDS011;6881;49.962;7.718;2023-04-03T16:42:12;1.60;;;1.20;;
3781;SDS011;6881;49.962;7.718;2023-04-03T16:44:38;2.20;;;1.40;;
3781;SDS011;6881;49.962;7.718;2023-04-03T16:47:04;3.90;;;2.00;;
3781;SDS011;6881;49.962;7.718;2023-04-03T16:49:30;5.00;;;2.10;;
3781;SDS011;6881;49.962;7.718;2023-04-03T16:51:59;2.87;;;2.00;;
3781;SDS011;6881;49.962;7.718;2023-04-03T16:54:25;1.63;;;1.50;;
3781;SDS011;6881;49.962;7.718;2023-04-03T16:56:51;2.57;;;1.37;;
3781;SDS011;6881;49.962;7.718;2023-04-03T16:59:16;5.07;;;2.03;;
3781;SDS011;6881;49.962;7.718;2023-04-03T17:01:42;1.47;;;1.10;;
3781;SDS011;6881;49.962;7.718;2023-04-03T17:04:07;3.50;;;1.70;;
3781;SDS011;6881;49.962;7.718;2023-04-03T17:06:33;3.03;;;1.33;;
3781;SDS011;6881;49.962;7.718;2023-04-03T17:08:58;3.23;;;1.57;;
3781;SDS011;6881;49.962;7.718;2023-04-03T17:11:24;3.03;;;1.87;;
3781;SDS011;6881;49.962;7.718;2023-04-03T17:13:50;5.00;;;1.80;;